Mare Island — WDC2198 — position and weather

sailwx.info

Track history (hours):
 
Tides and Currents Weather Stations Pressure Air Temp Water Temp Dewpoint Dewpoint Depression Visibility Wind Speed Wind Dir Waves Ship Positions

Mare Island

Owner: San Francisco Bay Area Water Emergency Transportation Authority, Vallejo, CA. More information available from US FCC via Universal Licensing System and Coast Guard Vessel Documentation Center.

Last reported at 2018-Feb-24 05:26 UTC. Time now 2018-Feb-25 10:14 UTC.
Position N 38°06' W 122°16'.

Length 42 m; draft 3 m.

Type: Passenger vessel. MMSI: 366989380.

Date/timePositionNaut miles runAvg speedWind from/ knotsBaromVisibWave heightAir tempDewpointWater temp
2018-Feb-24 05:26N 38°06' W 122°16'1 3.2
2018-Feb-24 05:00N 38°05' W 122°15'1326.9
2018-Feb-24 04:30N 37°55' W 122°25'714.0
2018-Feb-24 04:00N 37°48' W 122°24'5 9.5
2018-Feb-24 03:30N 37°52' W 122°25'1528.9
2018-Feb-24 03:00N 38°04' W 122°15'2 3.0
2018-Feb-24 02:23N 38°06' W 122°16'2 4.2
2018-Feb-24 02:00N 38°05' W 122°15'1427.4
2018-Feb-24 01:30N 37°54' W 122°25'612.0
2018-Feb-24 01:00N 37°48' W 122°24'1224.9
2018-Feb-24 00:30N 38°00' W 122°25'913.7
2018-Feb-23 23:51N 38°06' W 122°16'0 0.0
2018-Feb-23 20:25N 38°06' W 122°16'614.0
2018-Feb-23 19:59N 38°02' W 122°21'1428.3
2018-Feb-23 19:30N 37°49' W 122°25'1 2.4
2018-Feb-23 19:01N 37°48' W 122°24'1020.9
2018-Feb-23 18:30N 37°58' W 122°26'11 8.6
2018-Feb-23 17:11N 38°06' W 122°16'1 5.4
2018-Feb-23 17:00N 38°05' W 122°15'1326.1
2018-Feb-23 16:31N 37°55' W 122°25'714.4
2018-Feb-23 16:00N 37°48' W 122°24'1223.4
2018-Feb-23 15:31N 37°59' W 122°25'1013.8
2018-Feb-23 14:47N 38°06' W 122°16'0 0.0
2018-Feb-23 05:21N 38°06' W 122°16'2 4.6
2018-Feb-23 05:00N 38°05' W 122°15'1327.1
2018-Feb-23 04:31N 37°54' W 122°25'612.6
2018-Feb-23 04:00N 37°48' W 122°24'1224.1
2018-Feb-23 03:30N 37°60' W 122°25'1014.7
2018-Feb-23 02:52N 38°06' W 122°16'618.1
2018-Feb-23 02:30N 38°01' W 122°21'1426.6
2018-Feb-23 02:00N 37°48' W 122°24'3 6.2
2018-Feb-23 01:31N 37°51' W 122°25'1529.0
2018-Feb-23 01:00N 38°04' W 122°16'2 3.4
2018-Feb-23 00:18N 38°06' W 122°16'518.0
2018-Feb-23 00:01N 38°02' W 122°20'1428.2
2018-Feb-22 23:30N 37°48' W 122°24'1 2.4
2018-Feb-22 23:00N 37°49' W 122°25'1021.1
2018-Feb-22 22:31N 37°59' W 122°25'10 4.1
2018-Feb-22 20:02N 38°06' W 122°16'1 9.1
2018-Feb-22 19:56N 38°05' W 122°15'1023.6
2018-Feb-22 19:30N 37°59' W 122°25'1020.9
2018-Feb-22 19:01N 37°49' W 122°25'611.6
2018-Feb-22 18:31N 37°47' W 122°18'1 1.5
2018-Feb-22 18:01N 37°48' W 122°17'510.6
2018-Feb-22 17:30N 37°48' W 122°24'0 0.0
2018-Feb-22 17:00N 37°48' W 122°24'0 0.0
2018-Feb-22 16:31N 37°48' W 122°24'510.2
2018-Feb-22 16:00N 37°48' W 122°17'510.4
2018-Feb-22 15:31N 37°48' W 122°24'1224.3
2018-Feb-22 15:00N 37°60' W 122°25'912.7
2018-Feb-22 14:17N 38°06' W 122°16'0 0.0
2018-Feb-22 03:03N 38°06' W 122°16'0 0.1
2018-Feb-22 02:50N 38°06' W 122°16'619.2
2018-Feb-22 02:30N 38°01' W 122°21'1426.5
2018-Feb-22 02:00N 37°48' W 122°24'4 8.7
2018-Feb-22 01:30N 37°52' W 122°25'1427.4
2018-Feb-22 01:00N 38°04' W 122°17'2 3.4
2018-Feb-22 00:21N 38°06' W 122°16'616.0
2018-Feb-22 00:00N 38°02' W 122°21'1428.3
2018-Feb-21 23:30N 37°48' W 122°24'1 2.4
2018-Feb-21 23:00N 37°49' W 122°25'1020.3
2018-Feb-21 22:31N 37°59' W 122°26'9 3.3
2018-Feb-21 19:41N 38°04' W 122°16'635.0
2018-Feb-21 19:30N 38°01' W 122°23'1225.0
2018-Feb-21 19:00N 37°49' W 122°25'611.4
2018-Feb-21 18:30N 37°47' W 122°18'0 0.7
2018-Feb-21 18:00N 37°48' W 122°17'5 9.9
2018-Feb-21 17:30N 37°48' W 122°24'0 0.0
2018-Feb-21 17:00N 37°48' W 122°24'0 0.1
2018-Feb-21 16:31N 37°48' W 122°23'5 9.9
2018-Feb-21 16:00N 37°48' W 122°17'510.2
2018-Feb-21 15:31N 37°48' W 122°24'1223.5
2018-Feb-21 15:00N 37°59' W 122°25'1013.0
2018-Feb-21 14:16N 38°06' W 122°16'0 0.4
2018-Feb-21 13:34N 38°06' W 122°16'0 0.0
2018-Feb-21 13:29N 38°06' W 122°16'0 0.0
2018-Feb-21 12:54N 38°06' W 122°16'0 0.0
2018-Feb-21 12:18N 38°06' W 122°16'0 0.0
2018-Feb-21 10:10N 38°06' W 122°16'0 0.0
2018-Feb-21 09:45N 38°06' W 122°16'0 0.0
2018-Feb-21 09:21N 38°06' W 122°16'0 0.0
2018-Feb-21 08:44N 38°06' W 122°16'0 0.0
2018-Feb-21 06:41N 38°06' W 122°16'0 0.0
2018-Feb-21 06:17N 38°06' W 122°16'0 0.0
2018-Feb-21 05:56N 38°06' W 122°16'0 0.0
2018-Feb-21 04:35N 38°06' W 122°16'0 0.0
2018-Feb-21 04:28N 38°06' W 122°16'2 4.1
2018-Feb-21 03:58N 38°04' W 122°15'1329.1
2018-Feb-21 03:30N 37°54' W 122°25'510.1
2018-Feb-21 03:00N 37°49' W 122°24'3 6.8
2018-Feb-21 02:31N 37°52' W 122°25'1528.1
2018-Feb-21 01:59N 38°05' W 122°15'1 2.2
2018-Feb-21 01:18N 38°06' W 122°16'310.5
2018-Feb-21 01:00N 38°03' W 122°17'1428.7
2018-Feb-21 00:30N 37°50' W 122°24'0 0.8
2018-Feb-21 00:00N 37°49' W 122°24'1529.3
2018-Feb-20 23:30N 38°03' W 122°18'3 6.0
2018-Feb-20 22:58N 38°06' W 122°16'0 0.1
2018-Feb-20 17:24N 38°06' W 122°16'0 0.0
2018-Feb-20 17:00N 38°06' W 122°16'0 0.7
2018-Feb-20 16:29N 38°06' W 122°16'714.2
2018-Feb-20 16:01N 38°01' W 122°22'1326.9
2018-Feb-20 15:30N 37°48' W 122°24'1122.6
2018-Feb-20 15:00N 37°59' W 122°26'1019.3
2018-Feb-20 14:28N 38°06' W 122°16'0 0.0
2018-Feb-20 01:40N 38°06' W 122°16'1 6.9
2018-Feb-20 01:30N 38°05' W 122°15'1325.9
2018-Feb-20 01:00N 37°55' W 122°26'815.4
2018-Feb-20 00:31N 37°48' W 122°24'1325.5
2018-Feb-20 00:00N 38°01' W 122°24'812.2
2018-Feb-19 23:19N 38°06' W 122°16'0 0.0
2018-Feb-19 21:45N 38°06' W 122°16'1 5.5
2018-Feb-19 21:30N 38°05' W 122°15'1428.9
2018-Feb-19 21:00N 37°53' W 122°25'510.6
2018-Feb-19 20:31N 37°48' W 122°24'1326.7
2018-Feb-19 20:01N 38°01' W 122°23'7 0.4
2018-Feb-19 01:54N 38°06' W 122°16'1 3.0
2018-Feb-19 01:29N 38°05' W 122°15'1224.9
2018-Feb-19 01:01N 37°56' W 122°26'917.6
2018-Feb-19 00:30N 37°48' W 122°24'1326.1
2018-Feb-19 00:01N 38°01' W 122°23'8 3.6
2018-Feb-18 21:51N 38°06' W 122°16'2 4.2
2018-Feb-18 21:29N 38°05' W 122°15'1328.5
2018-Feb-18 21:01N 37°54' W 122°25'612.3
2018-Feb-18 20:30N 37°48' W 122°24'1326.2
2018-Feb-18 20:00N 38°01' W 122°23'8 9.5
2018-Feb-18 19:12N 38°06' W 122°16'0 0.0
2018-Feb-18 02:02N 38°06' W 122°16'0 1.1
2018-Feb-18 01:56N 38°06' W 122°16'1 3.3
2018-Feb-18 01:30N 38°05' W 122°15'1225.3
2018-Feb-18 01:01N 37°56' W 122°25'815.8
2018-Feb-18 00:30N 37°48' W 122°24'1224.4
2018-Feb-18 00:00N 37°60' W 122°25'918.4
2018-Feb-17 23:30N 38°06' W 122°16'0 0.6
2018-Feb-17 23:00N 38°06' W 122°16'0 0.0
2018-Feb-17 22:29N 38°06' W 122°16'0 0.0
2018-Feb-17 21:57N 38°06' W 122°16'2 3.8
2018-Feb-17 21:30N 38°05' W 122°15'1428.9
2018-Feb-17 21:00N 37°53' W 122°25'510.0
2018-Feb-17 20:30N 37°48' W 122°24'1326.0
2018-Feb-17 20:00N 38°01' W 122°23'813.8
2018-Feb-17 19:26N 38°06' W 122°16'0 0.7
2018-Feb-17 19:00N 38°06' W 122°16'0 0.0
2018-Feb-17 18:30N 38°06' W 122°16'0 0.0
2018-Feb-17 18:00N 38°06' W 122°16'0 0.0
2018-Feb-17 17:30N 38°06' W 122°16'0 0.0
2018-Feb-17 17:00N 38°06' W 122°16'0 0.0
2018-Feb-17 16:29N 38°06' W 122°16'0 0.0
2018-Feb-17 15:46N 38°06' W 122°16'0 0.0
2018-Feb-17 15:30N 38°06' W 122°16'0 0.0
2018-Feb-17 12:44N 38°06' W 122°16'0 0.0
2018-Feb-17 12:30N 38°06' W 122°16'0 0.0
2018-Feb-17 11:51N 38°06' W 122°16'0 0.0
2018-Feb-17 11:29N 38°06' W 122°16'0 0.0
2018-Feb-17 10:54N 38°06' W 122°16'0 0.0
2018-Feb-17 09:49N 38°06' W 122°16'0 0.0
2018-Feb-17 09:28N 38°06' W 122°16'0 0.0
2018-Feb-17 09:00N 38°06' W 122°16'0 0.0
2018-Feb-17 08:30N 38°06' W 122°16'0 0.0
2018-Feb-17 07:58N 38°06' W 122°16'0 0.0
2018-Feb-17 07:25N 38°06' W 122°16'0 0.0
2018-Feb-17 06:59N 38°06' W 122°16'0 0.0
2018-Feb-17 06:18N 38°06' W 122°16'0 0.0
2018-Feb-17 05:33N 38°06' W 122°16'0 0.0
2018-Feb-17 05:30N 38°06' W 122°16'0 0.0
2018-Feb-17 04:58N 38°06' W 122°16'0 0.0
2018-Feb-17 04:30N 38°06' W 122°16'2 3.1
2018-Feb-17 04:00N 38°05' W 122°15'1326.4
2018-Feb-17 03:30N 37°55' W 122°25'612.7
2018-Feb-17 03:01N 37°48' W 122°24'4 7.2
2018-Feb-17 02:31N 37°52' W 122°25'1529.1
2018-Feb-17 02:01N 38°04' W 122°15'2 4.0
2018-Feb-17 01:30N 38°06' W 122°16'713.5
2018-Feb-17 01:00N 38°01' W 122°22'1427.2
2018-Feb-17 00:30N 37°48' W 122°24'2 4.3
2018-Feb-17 00:01N 37°50' W 122°24'1428.0
2018-Feb-16 23:31N 38°03' W 122°18'3 7.0
2018-Feb-16 23:00N 38°06' W 122°16'0 0.1
2018-Feb-16 20:36N 38°06' W 122°16'0 1.0
2018-Feb-16 20:29N 38°06' W 122°16'510.4
2018-Feb-16 20:00N 38°02' W 122°20'1428.0
2018-Feb-16 19:30N 37°49' W 122°25'1 2.4
2018-Feb-16 19:00N 37°48' W 122°24'1223.7
2018-Feb-16 18:31N 37°59' W 122°25'1019.0
2018-Feb-16 18:00N 38°06' W 122°16'0 0.0
2018-Feb-16 17:30N 38°06' W 122°16'1 2.5
2018-Feb-16 17:01N 38°05' W 122°15'1427.3
2018-Feb-16 16:31N 37°54' W 122°25'612.3
2018-Feb-16 16:00N 37°48' W 122°24'1122.6
2018-Feb-16 15:30N 37°59' W 122°25'1015.1
2018-Feb-16 14:50N 38°06' W 122°16'0 0.9
2018-Feb-16 14:30N 38°06' W 122°16'0 0.0
2018-Feb-16 14:00N 38°06' W 122°16'0 0.0
2018-Feb-16 13:30N 38°06' W 122°16'0 0.0
2018-Feb-16 13:00N 38°06' W 122°16'0 0.0
2018-Feb-16 12:30N 38°06' W 122°16'0 0.0
2018-Feb-16 12:00N 38°06' W 122°16'0 0.0
2018-Feb-16 11:30N 38°06' W 122°16'0 0.0
2018-Feb-16 10:20N 38°06' W 122°16'0 0.0
2018-Feb-16 09:41N 38°06' W 122°16'0 0.0
2018-Feb-16 09:24N 38°06' W 122°16'0 0.0
2018-Feb-16 09:00N 38°06' W 122°16'0 0.0
2018-Feb-16 08:30N 38°06' W 122°16'0 0.0
2018-Feb-16 08:00N 38°06' W 122°16'0 0.0
2018-Feb-16 07:30N 38°06' W 122°16'0 0.0
2018-Feb-16 05:18N 38°06' W 122°16'0 0.0
2018-Feb-16 04:54N 38°06' W 122°16'0 0.0
2018-Feb-16 04:29N 38°06' W 122°16'2 3.6
2018-Feb-16 04:00N 38°05' W 122°15'1326.6
2018-Feb-16 03:31N 37°54' W 122°25'611.8
2018-Feb-16 03:01N 37°48' W 122°24'3 5.1
2018-Feb-16 02:30N 37°51' W 122°25'1631.5
2018-Feb-16 02:00N 38°04' W 122°15'2 3.5
2018-Feb-16 01:30N 38°06' W 122°16'714.3
2018-Feb-16 01:00N 38°01' W 122°22'1326.5
2018-Feb-16 00:30N 37°48' W 122°24'0 0.8
2018-Feb-16 00:00N 37°48' W 122°23'1530.7
2018-Feb-15 23:31N 38°03' W 122°18'4 1.2
2018-Feb-15 20:32N 38°06' W 122°16'1 4.3
2018-Feb-15 20:17N 38°05' W 122°15'724.9
2018-Feb-15 20:00N 38°01' W 122°22'1325.5
2018-Feb-15 19:30N 37°49' W 122°25'1 2.4
2018-Feb-15 19:00N 37°48' W 122°24'1224.8
2018-Feb-15 18:31N 37°60' W 122°24'9 6.5
2018-Feb-15 17:06N 38°06' W 122°16'1 9.2
2018-Feb-15 17:00N 38°05' W 122°15'1427.2
2018-Feb-15 16:31N 37°54' W 122°25'713.4
2018-Feb-15 16:00N 37°48' W 122°24'1121.5
2018-Feb-15 15:31N 37°58' W 122°26'1114.1
2018-Feb-15 14:44N 38°06' W 122°16'0 0.0
2018-Feb-15 05:23N 38°06' W 122°16'2 4.0
2018-Feb-15 05:00N 38°05' W 122°15'1427.6
2018-Feb-15 04:30N 37°54' W 122°25'611.8
2018-Feb-15 04:00N 37°48' W 122°24'510.8
2018-Feb-15 03:30N 37°53' W 122°25'1511.7
2018-Feb-15 02:13N 38°06' W 122°16'1 6.7
2018-Feb-15 02:00N 38°05' W 122°15'1223.9
2018-Feb-15 01:31N 37°57' W 122°26'917.7
2018-Feb-15 01:00N 37°48' W 122°24'1223.7
2018-Feb-15 00:31N 37°59' W 122°25'1013.8
2018-Feb-14 23:47N 38°06' W 122°16'0 0.1
2018-Feb-14 19:08N 38°06' W 122°16'0 0.0
2018-Feb-14 18:56N 38°06' W 122°16'0 0.0
2018-Feb-14 18:08N 38°06' W 122°16'0 1.8
2018-Feb-14 17:58N 38°06' W 122°16'510.3
2018-Feb-14 17:31N 38°02' W 122°20'1529.6
2018-Feb-14 17:01N 37°48' W 122°24'4 7.8
2018-Feb-14 16:30N 37°52' W 122°25'1428.6
2018-Feb-14 16:00N 38°04' W 122°16'2 4.0
2018-Feb-14 15:30N 38°06' W 122°16'817.5
2018-Feb-14 15:01N 38°00' W 122°24'1224.7
2018-Feb-14 14:30N 37°48' W 122°24'1122.9
2018-Feb-14 14:00N 37°59' W 122°25'1020.2
2018-Feb-14 13:30N 38°06' W 122°16'0 0.0
2018-Feb-14 05:32N 38°06' W 122°16'  
Track history (hours):
 
Tides and Currents Weather Stations Pressure Air Temp Water Temp Dewpoint Dewpoint Depression Visibility Wind Speed Wind Dir Waves Ship Positions

Mare Island

Owner: San Francisco Bay Area Water Emergency Transportation Authority, Vallejo, CA. More information available from US FCC via Universal Licensing System and Coast Guard Vessel Documentation Center.

Last reported at 2018-Feb-24 05:26 UTC. Time now 2018-Feb-25 10:14 UTC.
Position N 38°06' W 122°16'.

Length 42 m; draft 3 m.

Type: Passenger vessel. MMSI: 366989380.

Date/timePositionNaut miles runAvg speedWind from/ knotsBaromVisibWave heightAir tempDewpointWater temp
2018-Feb-24 05:26N 38°06' W 122°16'1 3.2
2018-Feb-24 05:00N 38°05' W 122°15'1326.9
2018-Feb-24 04:30N 37°55' W 122°25'714.0
2018-Feb-24 04:00N 37°48' W 122°24'5 9.5
2018-Feb-24 03:30N 37°52' W 122°25'1528.9
2018-Feb-24 03:00N 38°04' W 122°15'2 3.0
2018-Feb-24 02:23N 38°06' W 122°16'2 4.2
2018-Feb-24 02:00N 38°05' W 122°15'1427.4
2018-Feb-24 01:30N 37°54' W 122°25'612.0
2018-Feb-24 01:00N 37°48' W 122°24'1224.9
2018-Feb-24 00:30N 38°00' W 122°25'913.7
2018-Feb-23 23:51N 38°06' W 122°16'0 0.0
2018-Feb-23 20:25N 38°06' W 122°16'614.0
2018-Feb-23 19:59N 38°02' W 122°21'1428.3
2018-Feb-23 19:30N 37°49' W 122°25'1 2.4
2018-Feb-23 19:01N 37°48' W 122°24'1020.9
2018-Feb-23 18:30N 37°58' W 122°26'11 8.6
2018-Feb-23 17:11N 38°06' W 122°16'1 5.4
2018-Feb-23 17:00N 38°05' W 122°15'1326.1
2018-Feb-23 16:31N 37°55' W 122°25'714.4
2018-Feb-23 16:00N 37°48' W 122°24'1223.4
2018-Feb-23 15:31N 37°59' W 122°25'1013.8
2018-Feb-23 14:47N 38°06' W 122°16'0 0.0
2018-Feb-23 05:21N 38°06' W 122°16'2 4.6
2018-Feb-23 05:00N 38°05' W 122°15'1327.1
2018-Feb-23 04:31N 37°54' W 122°25'612.6
2018-Feb-23 04:00N 37°48' W 122°24'1224.1
2018-Feb-23 03:30N 37°60' W 122°25'1014.7
2018-Feb-23 02:52N 38°06' W 122°16'618.1
2018-Feb-23 02:30N 38°01' W 122°21'1426.6
2018-Feb-23 02:00N 37°48' W 122°24'3 6.2
2018-Feb-23 01:31N 37°51' W 122°25'1529.0
2018-Feb-23 01:00N 38°04' W 122°16'2 3.4
2018-Feb-23 00:18N 38°06' W 122°16'518.0
2018-Feb-23 00:01N 38°02' W 122°20'1428.2
2018-Feb-22 23:30N 37°48' W 122°24'1 2.4
2018-Feb-22 23:00N 37°49' W 122°25'1021.1
2018-Feb-22 22:31N 37°59' W 122°25'10 4.1
2018-Feb-22 20:02N 38°06' W 122°16'1 9.1
2018-Feb-22 19:56N 38°05' W 122°15'1023.6
2018-Feb-22 19:30N 37°59' W 122°25'1020.9
2018-Feb-22 19:01N 37°49' W 122°25'611.6
2018-Feb-22 18:31N 37°47' W 122°18'1 1.5
2018-Feb-22 18:01N 37°48' W 122°17'510.6
2018-Feb-22 17:30N 37°48' W 122°24'0 0.0
2018-Feb-22 17:00N 37°48' W 122°24'0 0.0
2018-Feb-22 16:31N 37°48' W 122°24'510.2
2018-Feb-22 16:00N 37°48' W 122°17'510.4
2018-Feb-22 15:31N 37°48' W 122°24'1224.3
2018-Feb-22 15:00N 37°60' W 122°25'912.7
2018-Feb-22 14:17N 38°06' W 122°16'0 0.0
2018-Feb-22 03:03N 38°06' W 122°16'0 0.1
2018-Feb-22 02:50N 38°06' W 122°16'619.2
2018-Feb-22 02:30N 38°01' W 122°21'1426.5
2018-Feb-22 02:00N 37°48' W 122°24'4 8.7
2018-Feb-22 01:30N 37°52' W 122°25'1427.4
2018-Feb-22 01:00N 38°04' W 122°17'2 3.4
2018-Feb-22 00:21N 38°06' W 122°16'616.0
2018-Feb-22 00:00N 38°02' W 122°21'1428.3
2018-Feb-21 23:30N 37°48' W 122°24'1 2.4
2018-Feb-21 23:00N 37°49' W 122°25'1020.3
2018-Feb-21 22:31N 37°59' W 122°26'9 3.3
2018-Feb-21 19:41N 38°04' W 122°16'635.0
2018-Feb-21 19:30N 38°01' W 122°23'1225.0
2018-Feb-21 19:00N 37°49' W 122°25'611.4
2018-Feb-21 18:30N 37°47' W 122°18'0 0.7
2018-Feb-21 18:00N 37°48' W 122°17'5 9.9
2018-Feb-21 17:30N 37°48' W 122°24'0 0.0
2018-Feb-21 17:00N 37°48' W 122°24'0 0.1
2018-Feb-21 16:31N 37°48' W 122°23'5 9.9
2018-Feb-21 16:00N 37°48' W 122°17'510.2
2018-Feb-21 15:31N 37°48' W 122°24'1223.5
2018-Feb-21 15:00N 37°59' W 122°25'1013.0
2018-Feb-21 14:16N 38°06' W 122°16'0 0.4
2018-Feb-21 13:34N 38°06' W 122°16'0 0.0
2018-Feb-21 13:29N 38°06' W 122°16'0 0.0
2018-Feb-21 12:54N 38°06' W 122°16'0 0.0
2018-Feb-21 12:18N 38°06' W 122°16'0 0.0
2018-Feb-21 10:10N 38°06' W 122°16'0 0.0
2018-Feb-21 09:45N 38°06' W 122°16'0 0.0
2018-Feb-21 09:21N 38°06' W 122°16'0 0.0
2018-Feb-21 08:44N 38°06' W 122°16'0 0.0
2018-Feb-21 06:41N 38°06' W 122°16'0 0.0
2018-Feb-21 06:17N 38°06' W 122°16'0 0.0
2018-Feb-21 05:56N 38°06' W 122°16'0 0.0
2018-Feb-21 04:35N 38°06' W 122°16'0 0.0
2018-Feb-21 04:28N 38°06' W 122°16'2 4.1
2018-Feb-21 03:58N 38°04' W 122°15'1329.1
2018-Feb-21 03:30N 37°54' W 122°25'510.1
2018-Feb-21 03:00N 37°49' W 122°24'3 6.8
2018-Feb-21 02:31N 37°52' W 122°25'1528.1
2018-Feb-21 01:59N 38°05' W 122°15'1 2.2
2018-Feb-21 01:18N 38°06' W 122°16'310.5
2018-Feb-21 01:00N 38°03' W 122°17'1428.7
2018-Feb-21 00:30N 37°50' W 122°24'0 0.8
2018-Feb-21 00:00N 37°49' W 122°24'1529.3
2018-Feb-20 23:30N 38°03' W 122°18'3 6.0
2018-Feb-20 22:58N 38°06' W 122°16'0 0.1
2018-Feb-20 17:24N 38°06' W 122°16'0 0.0
2018-Feb-20 17:00N 38°06' W 122°16'0 0.7
2018-Feb-20 16:29N 38°06' W 122°16'714.2
2018-Feb-20 16:01N 38°01' W 122°22'1326.9
2018-Feb-20 15:30N 37°48' W 122°24'1122.6
2018-Feb-20 15:00N 37°59' W 122°26'1019.3
2018-Feb-20 14:28N 38°06' W 122°16'0 0.0
2018-Feb-20 01:40N 38°06' W 122°16'1 6.9
2018-Feb-20 01:30N 38°05' W 122°15'1325.9
2018-Feb-20 01:00N 37°55' W 122°26'815.4
2018-Feb-20 00:31N 37°48' W 122°24'1325.5
2018-Feb-20 00:00N 38°01' W 122°24'812.2
2018-Feb-19 23:19N 38°06' W 122°16'0 0.0
2018-Feb-19 21:45N 38°06' W 122°16'1 5.5
2018-Feb-19 21:30N 38°05' W 122°15'1428.9
2018-Feb-19 21:00N 37°53' W 122°25'510.6
2018-Feb-19 20:31N 37°48' W 122°24'1326.7
2018-Feb-19 20:01N 38°01' W 122°23'7 0.4
2018-Feb-19 01:54N 38°06' W 122°16'1 3.0
2018-Feb-19 01:29N 38°05' W 122°15'1224.9
2018-Feb-19 01:01N 37°56' W 122°26'917.6
2018-Feb-19 00:30N 37°48' W 122°24'1326.1
2018-Feb-19 00:01N 38°01' W 122°23'8 3.6
2018-Feb-18 21:51N 38°06' W 122°16'2 4.2
2018-Feb-18 21:29N 38°05' W 122°15'1328.5
2018-Feb-18 21:01N 37°54' W 122°25'612.3
2018-Feb-18 20:30N 37°48' W 122°24'1326.2
2018-Feb-18 20:00N 38°01' W 122°23'8 9.5
2018-Feb-18 19:12N 38°06' W 122°16'0 0.0
2018-Feb-18 02:02N 38°06' W 122°16'0 1.1
2018-Feb-18 01:56N 38°06' W 122°16'1 3.3
2018-Feb-18 01:30N 38°05' W 122°15'1225.3
2018-Feb-18 01:01N 37°56' W 122°25'815.8
2018-Feb-18 00:30N 37°48' W 122°24'1224.4
2018-Feb-18 00:00N 37°60' W 122°25'918.4
2018-Feb-17 23:30N 38°06' W 122°16'0 0.6
2018-Feb-17 23:00N 38°06' W 122°16'0 0.0
2018-Feb-17 22:29N 38°06' W 122°16'0 0.0
2018-Feb-17 21:57N 38°06' W 122°16'2 3.8
2018-Feb-17 21:30N 38°05' W 122°15'1428.9
2018-Feb-17 21:00N 37°53' W 122°25'510.0
2018-Feb-17 20:30N 37°48' W 122°24'1326.0
2018-Feb-17 20:00N 38°01' W 122°23'813.8
2018-Feb-17 19:26N 38°06' W 122°16'0 0.7
2018-Feb-17 19:00N 38°06' W 122°16'0 0.0
2018-Feb-17 18:30N 38°06' W 122°16'0 0.0
2018-Feb-17 18:00N 38°06' W 122°16'0 0.0
2018-Feb-17 17:30N 38°06' W 122°16'0 0.0
2018-Feb-17 17:00N 38°06' W 122°16'0 0.0
2018-Feb-17 16:29N 38°06' W 122°16'0 0.0
2018-Feb-17 15:46N 38°06' W 122°16'0 0.0
2018-Feb-17 15:30N 38°06' W 122°16'0 0.0
2018-Feb-17 12:44N 38°06' W 122°16'0 0.0
2018-Feb-17 12:30N 38°06' W 122°16'0 0.0
2018-Feb-17 11:51N 38°06' W 122°16'0 0.0
2018-Feb-17 11:29N 38°06' W 122°16'0 0.0
2018-Feb-17 10:54N 38°06' W 122°16'0 0.0
2018-Feb-17 09:49N 38°06' W 122°16'0 0.0
2018-Feb-17 09:28N 38°06' W 122°16'0 0.0
2018-Feb-17 09:00N 38°06' W 122°16'0 0.0
2018-Feb-17 08:30N 38°06' W 122°16'0 0.0
2018-Feb-17 07:58N 38°06' W 122°16'0 0.0
2018-Feb-17 07:25N 38°06' W 122°16'0 0.0
2018-Feb-17 06:59N 38°06' W 122°16'0 0.0
2018-Feb-17 06:18N 38°06' W 122°16'0 0.0
2018-Feb-17 05:33N 38°06' W 122°16'0 0.0
2018-Feb-17 05:30N 38°06' W 122°16'0 0.0
2018-Feb-17 04:58N 38°06' W 122°16'0 0.0
2018-Feb-17 04:30N 38°06' W 122°16'2 3.1
2018-Feb-17 04:00N 38°05' W 122°15'1326.4
2018-Feb-17 03:30N 37°55' W 122°25'612.7
2018-Feb-17 03:01N 37°48' W 122°24'4 7.2
2018-Feb-17 02:31N 37°52' W 122°25'1529.1
2018-Feb-17 02:01N 38°04' W 122°15'2 4.0
2018-Feb-17 01:30N 38°06' W 122°16'713.5
2018-Feb-17 01:00N 38°01' W 122°22'1427.2
2018-Feb-17 00:30N 37°48' W 122°24'2 4.3
2018-Feb-17 00:01N 37°50' W 122°24'1428.0
2018-Feb-16 23:31N 38°03' W 122°18'3 7.0
2018-Feb-16 23:00N 38°06' W 122°16'0 0.1
2018-Feb-16 20:36N 38°06' W 122°16'0 1.0
2018-Feb-16 20:29N 38°06' W 122°16'510.4
2018-Feb-16 20:00N 38°02' W 122°20'1428.0
2018-Feb-16 19:30N 37°49' W 122°25'1 2.4
2018-Feb-16 19:00N 37°48' W 122°24'1223.7
2018-Feb-16 18:31N 37°59' W 122°25'1019.0
2018-Feb-16 18:00N 38°06' W 122°16'0 0.0
2018-Feb-16 17:30N 38°06' W 122°16'1 2.5
2018-Feb-16 17:01N 38°05' W 122°15'1427.3
2018-Feb-16 16:31N 37°54' W 122°25'612.3
2018-Feb-16 16:00N 37°48' W 122°24'1122.6
2018-Feb-16 15:30N 37°59' W 122°25'1015.1
2018-Feb-16 14:50N 38°06' W 122°16'0 0.9
2018-Feb-16 14:30N 38°06' W 122°16'0 0.0
2018-Feb-16 14:00N 38°06' W 122°16'0 0.0
2018-Feb-16 13:30N 38°06' W 122°16'0 0.0
2018-Feb-16 13:00N 38°06' W 122°16'0 0.0
2018-Feb-16 12:30N 38°06' W 122°16'0 0.0
2018-Feb-16 12:00N 38°06' W 122°16'0 0.0
2018-Feb-16 11:30N 38°06' W 122°16'0 0.0
2018-Feb-16 10:20N 38°06' W 122°16'0 0.0
2018-Feb-16 09:41N 38°06' W 122°16'0 0.0
2018-Feb-16 09:24N 38°06' W 122°16'0 0.0
2018-Feb-16 09:00N 38°06' W 122°16'0 0.0
2018-Feb-16 08:30N 38°06' W 122°16'0 0.0
2018-Feb-16 08:00N 38°06' W 122°16'0 0.0
2018-Feb-16 07:30N 38°06' W 122°16'0 0.0
2018-Feb-16 05:18N 38°06' W 122°16'0 0.0
2018-Feb-16 04:54N 38°06' W 122°16'0 0.0
2018-Feb-16 04:29N 38°06' W 122°16'2 3.6
2018-Feb-16 04:00N 38°05' W 122°15'1326.6
2018-Feb-16 03:31N 37°54' W 122°25'611.8
2018-Feb-16 03:01N 37°48' W 122°24'3 5.1
2018-Feb-16 02:30N 37°51' W 122°25'1631.5
2018-Feb-16 02:00N 38°04' W 122°15'2 3.5
2018-Feb-16 01:30N 38°06' W 122°16'714.3
2018-Feb-16 01:00N 38°01' W 122°22'1326.5
2018-Feb-16 00:30N 37°48' W 122°24'0 0.8
2018-Feb-16 00:00N 37°48' W 122°23'1530.7
2018-Feb-15 23:31N 38°03' W 122°18'4 1.2
2018-Feb-15 20:32N 38°06' W 122°16'1 4.3
2018-Feb-15 20:17N 38°05' W 122°15'724.9
2018-Feb-15 20:00N 38°01' W 122°22'1325.5
2018-Feb-15 19:30N 37°49' W 122°25'1 2.4
2018-Feb-15 19:00N 37°48' W 122°24'1224.8
2018-Feb-15 18:31N 37°60' W 122°24'9 6.5
2018-Feb-15 17:06N 38°06' W 122°16'1 9.2
2018-Feb-15 17:00N 38°05' W 122°15'1427.2
2018-Feb-15 16:31N 37°54' W 122°25'713.4
2018-Feb-15 16:00N 37°48' W 122°24'1121.5
2018-Feb-15 15:31N 37°58' W 122°26'1114.1
2018-Feb-15 14:44N 38°06' W 122°16'0 0.0
2018-Feb-15 05:23N 38°06' W 122°16'2 4.0
2018-Feb-15 05:00N 38°05' W 122°15'1427.6
2018-Feb-15 04:30N 37°54' W 122°25'611.8
2018-Feb-15 04:00N 37°48' W 122°24'510.8
2018-Feb-15 03:30N 37°53' W 122°25'1511.7
2018-Feb-15 02:13N 38°06' W 122°16'1 6.7
2018-Feb-15 02:00N 38°05' W 122°15'1223.9
2018-Feb-15 01:31N 37°57' W 122°26'917.7
2018-Feb-15 01:00N 37°48' W 122°24'1223.7
2018-Feb-15 00:31N 37°59' W 122°25'1013.8
2018-Feb-14 23:47N 38°06' W 122°16'0 0.1
2018-Feb-14 19:08N 38°06' W 122°16'0 0.0
2018-Feb-14 18:56N 38°06' W 122°16'0 0.0
2018-Feb-14 18:08N 38°06' W 122°16'0 1.8
2018-Feb-14 17:58N 38°06' W 122°16'510.3
2018-Feb-14 17:31N 38°02' W 122°20'1529.6
2018-Feb-14 17:01N 37°48' W 122°24'4 7.8
2018-Feb-14 16:30N 37°52' W 122°25'1428.6
2018-Feb-14 16:00N 38°04' W 122°16'2 4.0
2018-Feb-14 15:30N 38°06' W 122°16'817.5
2018-Feb-14 15:01N 38°00' W 122°24'1224.7
2018-Feb-14 14:30N 37°48' W 122°24'1122.9
2018-Feb-14 14:00N 37°59' W 122°25'1020.2
2018-Feb-14 13:30N 38°06' W 122°16'0 0.0
2018-Feb-14 05:32N 38°06' W 122°16'  

Dump ship's entire track history